createdAt,value
2016-12-19T00:00:11.526Z,85.53
2016-12-19T00:01:11.826Z,85.91
2016-12-19T00:02:11.490Z,85.44
2016-12-19T00:03:11.472Z,85.16
2016-12-19T00:04:11.469Z,85.35
2016-12-19T00:05:11.438Z,85.06
2016-12-19T00:06:11.421Z,85.16
2016-12-19T00:07:11.400Z,85.16
2016-12-19T00:08:11.383Z,84.87
2016-12-19T00:09:11.367Z,85.25
2016-12-19T00:10:11.346Z,85.06
2016-12-19T00:11:11.332Z,85.16
2016-12-19T00:12:11.310Z,84.97
2016-12-19T00:13:11.293Z,85.06
2016-12-19T00:14:11.275Z,85.53
2016-12-19T00:15:11.261Z,85.35
2016-12-19T00:16:11.241Z,85.63
2016-12-19T00:17:11.221Z,85.44
2016-12-19T00:18:11.208Z,85.53
2016-12-19T00:19:11.187Z,85.16
2016-12-19T00:20:11.169Z,85.16
2016-12-19T00:21:11.165Z,85.25
2016-12-19T00:22:11.451Z,85.35
2016-12-19T00:23:11.119Z,85.16
2016-12-19T00:24:11.306Z,85.16
2016-12-19T00:25:11.079Z,84.87
2016-12-19T00:26:11.061Z,85.35
2016-12-19T00:27:11.045Z,85.82
2016-12-19T00:28:11.027Z,85.72
2016-12-19T00:29:11.007Z,85.44
2016-12-19T00:30:10.991Z,85.06
2016-12-19T00:31:10.971Z,85.25
2016-12-19T00:32:10.952Z,85.25
2016-12-19T00:33:10.936Z,85.06
2016-12-19T00:34:10.915Z,84.97
2016-12-19T00:35:10.895Z,85.91
2016-12-19T00:36:10.880Z,85.72
2016-12-19T00:37:10.866Z,85.53
2016-12-19T00:38:10.848Z,85.53
2016-12-19T00:39:11.138Z,85.72
2016-12-19T00:40:10.808Z,85.16
2016-12-19T00:41:10.792Z,85.72
2016-12-19T00:42:11.085Z,85.53
2016-12-19T00:43:10.755Z,85.53
2016-12-19T00:44:10.760Z,85.35
2016-12-19T00:45:10.718Z,85.06
2016-12-19T00:46:10.704Z,85.25
2016-12-19T00:47:10.686Z,85.16
2016-12-19T00:48:10.663Z,85.35
2016-12-19T00:49:10.646Z,84.87
2016-12-19T00:50:10.626Z,85.16
2016-12-19T00:51:10.660Z,85.06
2016-12-19T00:52:10.595Z,85.16
2016-12-19T00:53:10.573Z,85.35
2016-12-19T00:54:10.558Z,85.63
2016-12-19T00:55:10.539Z,85.72
2016-12-19T00:56:10.521Z,85.72
2016-12-19T00:57:10.501Z,85.25
2016-12-19T00:58:10.491Z,85.35
2016-12-19T00:59:10.468Z,84.87
2016-12-19T01:00:10.448Z,85.06
2016-12-19T01:01:10.435Z,85.72
2016-12-19T01:02:10.721Z,85.53
2016-12-19T01:03:10.399Z,85.63
2016-12-19T01:04:10.376Z,85.82
2016-12-19T01:05:10.357Z,85.72
2016-12-19T01:06:10.342Z,85.63
2016-12-19T01:07:10.325Z,85.53
2016-12-19T01:08:10.304Z,85.53
2016-12-19T01:09:10.287Z,85.63
2016-12-19T01:10:10.273Z,85.91
2016-12-19T01:11:10.249Z,85.72
2016-12-19T01:12:10.231Z,85.91
2016-12-19T01:13:10.214Z,85.91
2016-12-19T01:14:10.509Z,85.63
2016-12-19T01:15:10.181Z,85.82
2016-12-19T01:16:10.160Z,85.82
2016-12-19T01:17:10.140Z,85.82
2016-12-19T01:18:10.125Z,85.53
2016-12-19T01:19:10.107Z,85.72
2016-12-19T01:20:10.089Z,85.53
2016-12-19T01:21:10.067Z,85.53
2016-12-19T01:22:10.054Z,85.63
2016-12-19T01:23:10.037Z,85.06
2016-12-19T01:24:10.016Z,84.97
2016-12-19T01:25:09.997Z,85.25
2016-12-19T01:26:09.980Z,85.53
2016-12-19T01:27:10.270Z,85.16
2016-12-19T01:28:09.945Z,85.06
2016-12-19T01:29:09.924Z,85.06
2016-12-19T01:30:09.904Z,85.16
2016-12-19T01:31:09.887Z,85.11
2016-12-19T01:32:09.874Z,85.16
2016-12-19T01:33:09.853Z,85.06
2016-12-19T01:34:09.834Z,85.11
2016-12-19T01:35:09.812Z,85.11
2016-12-19T01:36:09.797Z,85.21
2016-12-19T01:37:09.785Z,85.06
2016-12-19T01:38:09.761Z,85.21
2016-12-19T01:39:09.741Z,85.25
2016-12-19T01:40:09.724Z,85.35
2016-12-19T01:41:09.704Z,85.68
2016-12-19T01:42:09.691Z,85.72
2016-12-19T01:43:10.030Z,85.53
2016-12-19T01:44:09.974Z,85.59
2016-12-19T01:45:09.639Z,85.63
2016-12-19T01:46:09.618Z,85.59
2016-12-19T01:47:09.600Z,85.72
2016-12-19T01:48:09.581Z,85.68
2016-12-19T01:49:09.873Z,84.92
2016-12-19T01:50:09.544Z,85.68
2016-12-19T01:51:09.528Z,85.68
2016-12-19T01:52:09.506Z,85.02
2016-12-19T01:53:09.492Z,85.3
2016-12-19T01:54:09.470Z,85.21
2016-12-19T01:55:09.455Z,84.92
2016-12-19T01:56:09.437Z,85.21
2016-12-19T01:57:09.415Z,85.25
2016-12-19T01:58:09.399Z,85.21
2016-12-19T01:59:09.385Z,85.25
2016-12-19T02:00:09.364Z,85.25
2016-12-19T02:01:09.344Z,85.02
2016-12-19T02:02:09.328Z,85.59
2016-12-19T02:03:09.309Z,85.02
2016-12-19T02:04:09.292Z,85.21
2016-12-19T02:05:09.273Z,85.3
2016-12-19T02:06:09.254Z,85.02
2016-12-19T02:07:09.240Z,85.02
2016-12-19T02:08:09.221Z,85.3
2016-12-19T02:09:09.530Z,85.4
2016-12-19T02:10:09.498Z,85.68
2016-12-19T02:11:09.164Z,84.83
2016-12-19T02:12:09.155Z,85.59
2016-12-19T02:13:09.126Z,85.02
2016-12-19T02:14:09.111Z,85.72
2016-12-19T02:15:09.093Z,85.02
2016-12-19T02:16:09.074Z,85.21
2016-12-19T02:17:09.058Z,85.06
2016-12-19T02:18:09.040Z,85.06
2016-12-19T02:19:09.018Z,85.53
2016-12-19T02:20:09.003Z,84.97
2016-12-19T02:21:08.983Z,84.87
2016-12-19T02:22:08.965Z,84.87
2016-12-19T02:23:09.263Z,84.87
2016-12-19T02:24:09.129Z,84.78
2016-12-19T02:25:08.913Z,84.78
2016-12-19T02:26:08.893Z,85.06
2016-12-19T02:27:08.874Z,85.06
2016-12-19T02:28:08.855Z,85.25
2016-12-19T02:29:08.839Z,84.78
2016-12-19T02:30:08.824Z,84.78
2016-12-19T02:31:08.804Z,84.59
2016-12-19T02:32:09.103Z,84.97
2016-12-19T02:33:08.797Z,84.78
2016-12-19T02:34:08.751Z,85.06
2016-12-19T02:35:08.731Z,84.97
2016-12-19T02:36:08.710Z,85.06
2016-12-19T02:37:08.696Z,85.06
2016-12-19T02:38:08.677Z,85.16
2016-12-19T02:39:08.658Z,85.06
2016-12-19T02:40:08.642Z,84.87
2016-12-19T02:41:08.622Z,84.49
2016-12-19T02:42:08.612Z,84.21
2016-12-19T02:43:08.588Z,84.3
2016-12-19T02:44:08.568Z,84.3
2016-12-19T02:45:08.552Z,84.3
2016-12-19T02:46:08.533Z,84.4
2016-12-19T02:47:08.516Z,84.59
2016-12-19T02:48:08.498Z,84.68
2016-12-19T02:49:08.479Z,84.59
2016-12-19T02:50:08.462Z,84.68
2016-12-19T02:51:08.441Z,84.4
2016-12-19T02:52:08.424Z,84.21
2016-12-19T02:53:08.608Z,84.49
2016-12-19T02:54:08.389Z,84.59
2016-12-19T02:55:08.371Z,84.21
2016-12-19T02:56:08.355Z,84.87
2016-12-19T02:57:08.344Z,84.97
2016-12-19T02:58:08.322Z,84.87
2016-12-19T02:59:08.304Z,84.78
2016-12-19T03:00:08.281Z,85.06
2016-12-19T03:01:08.259Z,85.06
2016-12-19T03:02:08.244Z,85.06
2016-12-19T03:03:08.229Z,84.78
2016-12-19T03:04:08.211Z,84.4
2016-12-19T03:05:08.190Z,84.49
2016-12-19T03:06:08.193Z,84.4
2016-12-19T03:07:08.159Z,84.3
2016-12-19T03:08:08.146Z,84.4
2016-12-19T03:09:08.122Z,84.49
2016-12-19T03:10:08.107Z,84.4
2016-12-19T03:11:08.081Z,84.4
2016-12-19T03:12:08.062Z,84.36
2016-12-19T03:13:08.049Z,84.3
2016-12-19T03:14:08.031Z,84.55
2016-12-19T03:15:08.013Z,84.59
2016-12-19T03:16:07.989Z,84.78
2016-12-19T03:17:07.975Z,84.55
2016-12-19T03:18:07.955Z,84.59
2016-12-19T03:19:07.941Z,84.36
2016-12-19T03:20:07.919Z,84.49
2016-12-19T03:21:08.212Z,84.26
2016-12-19T03:22:07.885Z,84.49
2016-12-19T03:23:07.866Z,84.45
2016-12-19T03:24:07.847Z,84.4
2016-12-19T03:25:07.835Z,84.36
2016-12-19T03:26:07.809Z,84.36
2016-12-19T03:27:07.792Z,84.45
2016-12-19T03:28:07.776Z,84.26
2016-12-19T03:29:08.068Z,84.17
2016-12-19T03:30:07.739Z,84.36
2016-12-19T03:31:07.721Z,84.64
2016-12-19T03:32:07.702Z,84.55
2016-12-19T03:33:07.686Z,84.55
2016-12-19T03:34:07.666Z,84.64
2016-12-19T03:35:07.651Z,84.26
2016-12-19T03:36:07.629Z,84.26
2016-12-19T03:37:07.613Z,84.36
2016-12-19T03:38:07.589Z,84.26
2016-12-19T03:39:07.573Z,84.17
2016-12-19T03:40:07.556Z,84.17
2016-12-19T03:41:07.541Z,84.64
2016-12-19T03:42:07.519Z,84.45
2016-12-19T03:43:07.504Z,84.55
2016-12-19T03:44:07.480Z,83.97
2016-12-19T03:45:07.774Z,83.78
2016-12-19T03:46:07.755Z,83.97
2016-12-19T03:47:07.424Z,83.78
2016-12-19T03:48:07.411Z,83.97
2016-12-19T03:49:07.390Z,84.17
2016-12-19T03:50:07.370Z,84.17
2016-12-19T03:51:07.356Z,83.78
2016-12-19T03:52:07.340Z,83.4
2016-12-19T03:53:07.315Z,83.69
2016-12-19T03:54:07.296Z,83.88
2016-12-19T03:55:07.280Z,83.69
2016-12-19T03:56:07.261Z,83.88
2016-12-19T03:57:07.245Z,83.78
2016-12-19T03:58:07.226Z,83.78
2016-12-19T03:59:07.209Z,83.59
2016-12-19T04:00:07.184Z,83.59
2016-12-19T04:01:07.168Z,83.69
2016-12-19T04:02:07.463Z,83.78
2016-12-19T04:03:07.445Z,83.78
2016-12-19T04:04:07.114Z,83.78
2016-12-19T04:05:07.097Z,83.59
2016-12-19T04:06:07.392Z,83.4
2016-12-19T04:07:07.369Z,83.69
2016-12-19T04:08:07.040Z,83.12
2016-12-19T04:09:07.018Z,83.78
2016-12-19T04:10:07.003Z,83.4
2016-12-19T04:11:07.008Z,83.69
2016-12-19T04:12:06.972Z,83.88
2016-12-19T04:13:07.269Z,83.78
2016-12-19T04:14:06.929Z,83.22
2016-12-19T04:15:06.914Z,83.4
2016-12-19T04:16:06.890Z,83.5
2016-12-19T04:17:06.871Z,83.31
2016-12-19T04:18:06.859Z,84.26
2016-12-19T04:19:06.833Z,84.17
2016-12-19T04:20:06.817Z,83.22
2016-12-19T04:21:06.799Z,83.69
2016-12-19T04:22:07.095Z,83.97
2016-12-19T04:23:06.768Z,83.12
2016-12-19T04:24:06.948Z,83.4
2016-12-19T04:25:07.039Z,83.69
2016-12-19T04:26:06.703Z,83.59
2016-12-19T04:27:06.691Z,83.22
2016-12-19T04:28:06.675Z,83.88
2016-12-19T04:29:06.694Z,83.22
2016-12-19T04:30:06.965Z,83.78
2016-12-19T04:31:06.622Z,83.88
2016-12-19T04:32:06.594Z,83.5
2016-12-19T04:33:06.604Z,83.88
2016-12-19T04:34:06.563Z,83.88
2016-12-19T04:35:06.545Z,83.31
2016-12-19T04:36:06.521Z,83.59
2016-12-19T04:37:06.504Z,83.31
2016-12-19T04:38:06.485Z,83.78
2016-12-19T04:39:06.467Z,83.69
2016-12-19T04:40:06.498Z,83.69
2016-12-19T04:41:06.429Z,83.69
2016-12-19T04:42:06.411Z,83.69
2016-12-19T04:43:06.391Z,83.97
2016-12-19T04:44:06.374Z,83.88
2016-12-19T04:45:06.669Z,83.69
2016-12-19T04:46:06.341Z,84.17
2016-12-19T04:47:06.319Z,83.69
2016-12-19T04:48:06.301Z,83.88
2016-12-19T04:49:06.282Z,83.88
2016-12-19T04:50:06.266Z,83.78
2016-12-19T04:51:06.558Z,83.69
2016-12-19T04:52:06.227Z,83.69
2016-12-19T04:53:06.210Z,83.78
2016-12-19T04:54:06.189Z,83.4
2016-12-19T04:55:06.173Z,84.26
2016-12-19T04:56:06.152Z,83.4
2016-12-19T04:57:06.134Z,83.12
2016-12-19T04:58:06.117Z,83.59
2016-12-19T04:59:06.098Z,83.5
2016-12-19T05:00:06.081Z,83.03
2016-12-19T05:01:06.062Z,83.12
2016-12-19T05:02:06.041Z,83.31
2016-12-19T05:03:06.025Z,83.22
2016-12-19T05:04:06.009Z,83.22
2016-12-19T05:05:06.302Z,82.93
2016-12-19T05:06:05.970Z,83.31
2016-12-19T05:07:05.950Z,83.03
2016-12-19T05:08:06.275Z,83.03
2016-12-19T05:09:05.914Z,83.12
2016-12-19T05:10:05.922Z,83.31
2016-12-19T05:11:05.887Z,83.12
2016-12-19T05:12:05.867Z,83.03
2016-12-19T05:13:05.844Z,82.84
2016-12-19T05:14:05.826Z,82.74
2016-12-19T05:15:05.805Z,82.74
2016-12-19T05:16:05.789Z,82.84
2016-12-19T05:17:05.768Z,82.74
2016-12-19T05:18:05.750Z,82.65
2016-12-19T05:19:05.731Z,82.74
2016-12-19T05:20:05.717Z,82.55
2016-12-19T05:21:05.897Z,82.84
2016-12-19T05:22:05.682Z,82.55
2016-12-19T05:23:05.974Z,82.55
2016-12-19T05:24:05.642Z,82.74
2016-12-19T05:25:05.627Z,82.55
2016-12-19T05:26:05.611Z,82.36
2016-12-19T05:27:05.586Z,82.36
2016-12-19T05:28:05.568Z,82.84
2016-12-19T05:29:05.554Z,82.74
2016-12-19T05:30:05.530Z,82.55
2016-12-19T05:31:05.512Z,82.65
2016-12-19T05:32:05.497Z,82.55
2016-12-19T05:33:05.475Z,82.65
2016-12-19T05:34:05.462Z,82.55
2016-12-19T05:35:05.446Z,82.65
2016-12-19T05:36:05.421Z,82.65
2016-12-19T05:37:05.405Z,82.84
2016-12-19T05:38:05.697Z,82.55
2016-12-19T05:39:05.684Z,82.84
2016-12-19T05:40:05.348Z,82.74
2016-12-19T05:41:05.330Z,82.93
2016-12-19T05:42:05.312Z,83.03
2016-12-19T05:43:05.294Z,82.93
2016-12-19T05:44:05.278Z,82.36
2016-12-19T05:45:05.258Z,82.17
2016-12-19T05:46:05.556Z,82.17
2016-12-19T05:47:05.227Z,81.79
2016-12-19T05:48:05.203Z,82.27
2016-12-19T05:49:05.185Z,81.98
2016-12-19T05:50:05.165Z,81.98
2016-12-19T05:51:05.533Z,82.36
2016-12-19T05:52:05.135Z,81.88
2016-12-19T05:53:05.112Z,82.46
2016-12-19T05:54:05.093Z,82.27
2016-12-19T05:55:05.073Z,82.46
2016-12-19T05:56:05.055Z,82.17
2016-12-19T05:57:05.039Z,82.46
2016-12-19T05:58:05.018Z,82.27
2016-12-19T05:59:05.005Z,82.08
2016-12-19T06:00:04.979Z,82.12
2016-12-19T06:01:04.965Z,82.46
2016-12-19T06:02:04.943Z,82.46
2016-12-19T06:03:04.927Z,82.36
2016-12-19T06:04:05.220Z,82.36
2016-12-19T06:05:04.889Z,82.08
2016-12-19T06:06:05.593Z,82.17
2016-12-19T06:07:04.864Z,82.17
2016-12-19T06:08:04.835Z,82.08
2016-12-19T06:09:04.820Z,82.36
2016-12-19T06:10:04.795Z,82.36
2016-12-19T06:11:04.782Z,82.17
2016-12-19T06:12:04.759Z,81.98
2016-12-19T06:13:04.746Z,82.46
2016-12-19T06:14:04.723Z,82.36
2016-12-19T06:15:04.705Z,82.17
2016-12-19T06:16:04.688Z,82.46
2016-12-19T06:17:04.669Z,82.46
2016-12-19T06:18:04.964Z,81.88
2016-12-19T06:19:04.960Z,81.79
2016-12-19T06:20:04.611Z,81.7
2016-12-19T06:21:04.595Z,81.98
2016-12-19T06:22:04.576Z,81.74
2016-12-19T06:23:04.559Z,81.93
2016-12-19T06:24:04.742Z,81.88
2016-12-19T06:25:04.526Z,81.79
2016-12-19T06:26:04.504Z,81.79
2016-12-19T06:27:04.486Z,81.88
2016-12-19T06:28:04.466Z,81.93
2016-12-19T06:29:04.450Z,81.93
2016-12-19T06:30:04.432Z,81.88
2016-12-19T06:31:04.445Z,81.88
2016-12-19T06:32:04.403Z,81.93
2016-12-19T06:33:04.392Z,81.93
2016-12-19T06:34:04.366Z,81.88
2016-12-19T06:35:04.344Z,81.79
2016-12-19T06:36:04.640Z,81.45
2016-12-19T06:37:04.308Z,81.45
2016-12-19T06:38:04.610Z,81.74
2016-12-19T06:39:04.266Z,81.93
2016-12-19T06:40:04.249Z,81.93
2016-12-19T06:41:04.542Z,81.88
2016-12-19T06:42:04.213Z,81.65
2016-12-19T06:43:04.192Z,81.84
2016-12-19T06:44:04.178Z,81.93
2016-12-19T06:45:04.154Z,82.21
2016-12-19T06:46:04.148Z,82.17
2016-12-19T06:47:04.120Z,82.03
2016-12-19T06:48:04.100Z,82.03
2016-12-19T06:49:04.081Z,81.79
2016-12-19T06:50:04.065Z,81.7
2016-12-19T06:51:04.048Z,82.97
2016-12-19T06:52:04.024Z,82.03
2016-12-19T06:53:04.324Z,81.88
2016-12-19T06:54:03.989Z,81.98
2016-12-19T06:55:03.972Z,82.93
2016-12-19T06:56:03.959Z,82.17
2016-12-19T06:57:03.937Z,82.97
2016-12-19T06:58:03.919Z,82.65
2016-12-19T06:59:03.901Z,82.65
2016-12-19T07:00:03.890Z,82.74
2016-12-19T07:01:03.862Z,82.74
2016-12-19T07:02:04.293Z,83.03
2016-12-19T07:03:03.831Z,83.03
2016-12-19T07:04:03.814Z,82.93
2016-12-19T07:05:03.790Z,83.03
2016-12-19T07:06:03.768Z,83.22
2016-12-19T07:07:03.754Z,83.03
2016-12-19T07:08:03.731Z,83.31
2016-12-19T07:09:03.714Z,83.12
2016-12-19T07:10:03.699Z,82.93
2016-12-19T07:11:03.673Z,82.93
2016-12-19T07:12:03.658Z,83.12
2016-12-19T07:13:03.953Z,82.74
2016-12-19T07:14:03.622Z,82.46
2016-12-19T07:15:03.602Z,82.65
2016-12-19T07:16:03.898Z,82.65
2016-12-19T07:17:03.878Z,82.55
2016-12-19T07:18:03.547Z,82.55
2016-12-19T07:19:03.525Z,82.74
2016-12-19T07:20:03.509Z,82.55
2016-12-19T07:21:03.488Z,82.65
2016-12-19T07:22:03.471Z,82.74
2016-12-19T07:23:03.453Z,82.65
2016-12-19T07:24:03.432Z,82.93
2016-12-19T07:25:03.415Z,83.5
2016-12-19T07:26:03.426Z,82.74
2016-12-19T07:27:03.376Z,83.12
2016-12-19T07:28:03.357Z,83.5
2016-12-19T07:29:03.339Z,83.5
2016-12-19T07:30:03.323Z,83.03
2016-12-19T07:31:03.305Z,83.59
2016-12-19T07:32:03.285Z,83.22
2016-12-19T07:33:03.265Z,83.5
2016-12-19T07:34:03.253Z,83.69
2016-12-19T07:35:03.231Z,83.22
2016-12-19T07:36:03.207Z,83.4
2016-12-19T07:37:03.190Z,83.22
2016-12-19T07:38:03.172Z,83.31
2016-12-19T07:39:03.153Z,82.93
2016-12-19T07:40:03.133Z,83.12
2016-12-19T07:41:03.117Z,83.22
2016-12-19T07:42:03.407Z,82.74
2016-12-19T07:43:03.081Z,83.22
2016-12-19T07:44:03.058Z,83.03
2016-12-19T07:45:03.048Z,83.4
2016-12-19T07:46:03.020Z,83.4
2016-12-19T07:47:03.008Z,83.22
2016-12-19T07:48:02.985Z,83.69
2016-12-19T07:49:03.320Z,83.69
2016-12-19T07:50:02.946Z,84.55
2016-12-19T07:51:02.938Z,84.45
2016-12-19T07:52:03.219Z,84.92
2016-12-19T07:53:02.908Z,85.4
2016-12-19T07:54:02.869Z,85.49
2016-12-19T07:55:02.865Z,86.07
2016-12-19T07:56:02.830Z,86.82
2016-12-19T07:57:02.812Z,86.82
2016-12-19T07:58:02.792Z,86.82
2016-12-19T07:59:03.090Z,86.63
2016-12-19T08:00:02.755Z,86.63
2016-12-19T08:01:02.736Z,87.11
2016-12-19T08:02:02.715Z,87.2
2016-12-19T08:03:02.704Z,87.3
2016-12-19T08:04:02.686Z,87.96
2016-12-19T08:05:02.660Z,87.58
2016-12-19T08:06:02.646Z,87.77
2016-12-19T08:07:02.627Z,88.15
2016-12-19T08:08:02.605Z,88.43
2016-12-19T08:09:02.588Z,88.53
2016-12-19T08:10:02.569Z,88.53
2016-12-19T08:11:02.889Z,88.43
2016-12-19T08:12:02.531Z,88.24
2016-12-19T08:13:02.513Z,88.72
2016-12-19T08:14:02.492Z,88.24
2016-12-19T08:15:02.476Z,88.06
2016-12-19T08:16:02.454Z,87.87
2016-12-19T08:17:02.437Z,88.53
2016-12-19T08:18:02.733Z,88.15
2016-12-19T08:19:02.401Z,88.15
2016-12-19T08:20:02.382Z,88.06
2016-12-19T08:21:02.359Z,88.53
2016-12-19T08:22:02.340Z,88.62
2016-12-19T08:23:02.634Z,88.15
2016-12-19T08:24:02.302Z,88.24
2016-12-19T08:25:02.488Z,88.81
2016-12-19T08:26:02.264Z,88.91
2016-12-19T08:27:02.443Z,89.2
2016-12-19T08:28:02.237Z,89.2
2016-12-19T08:29:02.211Z,89.1
2016-12-19T08:30:02.504Z,89
2016-12-19T08:31:02.170Z,89.29
2016-12-19T08:32:02.156Z,89.2
2016-12-19T08:33:02.134Z,89.29
2016-12-19T08:34:02.146Z,89.29
2016-12-19T08:35:02.097Z,89.1
2016-12-19T08:36:02.391Z,89.2
2016-12-19T08:37:02.056Z,89.2
2016-12-19T08:38:02.038Z,89.1
2016-12-19T08:39:02.019Z,89.58
2016-12-19T08:40:02.004Z,89.86
2016-12-19T08:41:01.985Z,89.86
2016-12-19T08:42:01.967Z,89.95
2016-12-19T08:43:02.259Z,89.67
2016-12-19T08:44:01.931Z,89.53
2016-12-19T08:45:01.907Z,89.67
2016-12-19T08:46:01.891Z,89.72
2016-12-19T08:47:01.870Z,89.81
2016-12-19T08:48:01.851Z,89.1
2016-12-19T08:49:01.832Z,89.53
2016-12-19T08:50:01.814Z,89.72
2016-12-19T08:51:01.798Z,89.34
2016-12-19T08:52:01.773Z,89.53
2016-12-19T08:53:01.754Z,89.06
2016-12-19T08:54:01.736Z,89.15
2016-12-19T08:55:01.716Z,89.25
2016-12-19T08:56:01.696Z,88.48
2016-12-19T08:57:01.991Z,88.01
2016-12-19T08:58:01.690Z,88.29
2016-12-19T08:59:01.639Z,88.29
2016-12-19T09:00:01.622Z,88.48
2016-12-19T09:01:01.606Z,88.48
2016-12-19T09:02:01.582Z,88.58
2016-12-19T09:03:01.566Z,88.1
2016-12-19T09:04:01.548Z,87.73
2016-12-19T09:05:01.543Z,87.63
2016-12-19T09:06:01.507Z,87.92
2016-12-19T09:07:01.487Z,88.01
2016-12-19T09:08:01.786Z,87.16
2016-12-19T09:09:01.453Z,87.35
2016-12-19T09:10:01.434Z,87.25
2016-12-19T09:11:01.412Z,86.87
2016-12-19T09:12:01.395Z,87.06
2016-12-19T09:13:01.378Z,87.54
2016-12-19T09:14:01.358Z,86.82
2016-12-19T09:15:01.659Z,86.49
2016-12-19T09:16:01.318Z,86.35
2016-12-19T09:17:01.301Z,86.3
2016-12-19T09:18:01.285Z,86.07
2016-12-19T09:19:01.261Z,85.3
2016-12-19T09:20:01.244Z,85.07
2016-12-19T09:21:01.544Z,84.64
2016-12-19T09:22:01.213Z,84.74
2016-12-19T09:23:01.193Z,84.74
2016-12-19T09:24:01.170Z,84.74
2016-12-19T09:25:01.153Z,84.45
2016-12-19T09:26:01.131Z,84.55
2016-12-19T09:27:01.114Z,84.55
2016-12-19T09:28:01.099Z,84.45
2016-12-19T09:29:01.076Z,84.74
2016-12-19T09:30:01.058Z,84.92
2016-12-19T09:31:01.037Z,84.17
2016-12-19T09:32:01.020Z,84.07
2016-12-19T09:33:01.005Z,84.26
2016-12-19T09:34:00.983Z,83.78
2016-12-19T09:35:00.973Z,83.97
2016-12-19T09:36:00.947Z,84.17
2016-12-19T09:37:00.934Z,84.17
2016-12-19T09:38:00.905Z,84.17
2016-12-19T09:39:00.891Z,84.07
2016-12-19T09:40:00.869Z,84.36
2016-12-19T09:41:00.865Z,84.55
2016-12-19T09:42:00.835Z,83.69
2016-12-19T09:43:00.820Z,83.88
2016-12-19T09:44:01.114Z,83.69
2016-12-19T09:45:00.797Z,84.36
2016-12-19T09:46:00.768Z,84.17
2016-12-19T09:47:00.762Z,84.64
2016-12-19T09:48:00.725Z,84.92
2016-12-19T09:49:00.706Z,86.77
2016-12-19T09:50:00.692Z,86.39
2016-12-19T09:51:01.005Z,87.34
2016-12-19T09:52:00.656Z,87.62
2016-12-19T09:53:00.634Z,87.43
2016-12-19T09:54:00.616Z,90.19
2016-12-19T09:55:00.601Z,91.33
2016-12-19T09:56:00.579Z,96.45
2016-12-19T09:57:00.561Z,98.83
2016-12-19T09:58:00.544Z,99.99
2016-12-19T09:59:00.530Z,99.99
2016-12-19T10:00:00.509Z,99.99
2016-12-19T10:01:00.496Z,99.99
2016-12-19T10:02:00.474Z,99.99
2016-12-19T10:03:00.461Z,99.99
2016-12-19T10:04:00.762Z,99.99
2016-12-19T10:05:00.505Z,99.99
2016-12-19T10:06:00.721Z,99.99
2016-12-19T10:07:00.392Z,99.99
2016-12-19T10:08:00.376Z,99.99
2016-12-19T10:09:00.670Z,99.99
2016-12-19T10:10:00.342Z,99.99
2016-12-19T10:11:00.326Z,99.99
2016-12-19T10:12:00.314Z,99.99
2016-12-19T10:13:00.294Z,99.99
2016-12-19T10:14:00.283Z,99.99
2016-12-19T10:15:00.265Z,99.99
2016-12-19T10:16:00.252Z,99.99
2016-12-19T10:17:00.238Z,99.99
2016-12-19T10:18:00.228Z,99.99
2016-12-19T10:19:00.211Z,99.99
2016-12-19T10:20:00.192Z,99.99
2016-12-19T10:21:00.182Z,99.99
2016-12-19T10:22:00.809Z,99.99
2016-12-19T10:23:00.154Z,99.99
2016-12-19T10:24:00.138Z,99.99
2016-12-19T10:25:00.329Z,99.99
2016-12-19T10:26:00.113Z,99.99
2016-12-19T10:27:00.104Z,99.99
2016-12-19T10:28:00.085Z,99.99
2016-12-19T10:29:00.081Z,99.99
2016-12-19T10:30:00.062Z,99.99
2016-12-19T10:31:00.049Z,99.99
2016-12-19T10:32:00.038Z,99.99
2016-12-19T10:33:00.023Z,99.99
2016-12-19T10:34:00.005Z,99.99
2016-12-19T10:34:59.998Z,99.99
2016-12-19T10:35:59.980Z,99.99
2016-12-19T10:36:59.974Z,99.99
2016-12-19T10:37:59.955Z,99.99
2016-12-19T10:38:59.942Z,99.99
2016-12-19T10:39:59.932Z,99.99
2016-12-19T10:40:59.920Z,99.99
2016-12-19T10:42:00.221Z,99.99
2016-12-19T10:42:59.892Z,99.99
2016-12-19T10:43:59.881Z,99.99
2016-12-19T10:44:59.865Z,99.99
2016-12-19T10:45:59.856Z,99.99
2016-12-19T10:47:00.489Z,99.99
2016-12-19T10:47:59.830Z,99.99
2016-12-19T10:48:59.821Z,99.99
2016-12-19T10:49:59.804Z,99.99
2016-12-19T10:51:00.105Z,99.99
2016-12-19T10:51:59.794Z,99.99
2016-12-19T10:52:59.769Z,99.99
2016-12-19T10:53:59.758Z,99.99
2016-12-19T10:54:59.745Z,99.99
2016-12-19T10:55:59.731Z,99.99
2016-12-19T10:57:00.032Z,99.99
2016-12-19T10:58:00.025Z,99.99
2016-12-19T10:59:00.014Z,99.99
2016-12-19T11:00:00.003Z,99.99
2016-12-19T11:00:59.989Z,99.99
2016-12-19T11:01:59.659Z,99.99
2016-12-19T11:02:59.645Z,99.99
2016-12-19T11:03:59.635Z,99.99
2016-12-19T11:04:59.622Z,99.99
2016-12-19T11:05:59.614Z,99.99
2016-12-19T11:06:59.598Z,99.99
2016-12-19T11:07:59.587Z,99.99
2016-12-19T11:08:59.573Z,99.99
2016-12-19T11:09:59.571Z,99.99
2016-12-19T11:10:59.552Z,99.99
2016-12-19T11:11:59.852Z,99.99
2016-12-19T11:12:59.527Z,99.99
2016-12-19T11:13:59.514Z,99.99
2016-12-19T11:14:59.500Z,99.99
2016-12-19T11:15:59.492Z,99.99
2016-12-19T11:16:59.485Z,99.99
2016-12-19T11:17:59.465Z,99.99
2016-12-19T11:18:59.454Z,99.99
2016-12-19T11:19:59.761Z,99.99
2016-12-19T11:20:59.432Z,99.99
2016-12-19T11:21:59.422Z,99.99
2016-12-19T11:22:59.413Z,99.99
2016-12-19T11:23:59.399Z,99.99
2016-12-19T11:24:59.391Z,99.99
2016-12-19T11:25:59.402Z,99.99
2016-12-19T11:26:59.368Z,99.99
2016-12-19T11:27:59.730Z,99.99
2016-12-19T11:28:59.660Z,99.99
2016-12-19T11:29:59.422Z,99.99
2016-12-19T11:30:59.631Z,99.99
2016-12-19T11:31:59.305Z,99.99
2016-12-19T11:32:59.297Z,99.99
2016-12-19T11:33:59.596Z,99.99
2016-12-19T11:34:59.272Z,99.99
2016-12-19T11:35:59.256Z,99.99
2016-12-19T11:36:59.244Z,99.99
2016-12-19T11:37:59.234Z,99.99
2016-12-19T11:38:59.217Z,99.99
2016-12-19T11:39:59.206Z,99.99
2016-12-19T11:40:59.195Z,99.99
2016-12-19T11:41:59.492Z,99.99
2016-12-19T11:42:59.164Z,99.99
2016-12-19T11:43:59.149Z,99.99
2016-12-19T11:44:59.138Z,99.99
2016-12-19T11:45:59.124Z,99.99
2016-12-19T11:46:59.107Z,99.99
2016-12-19T11:47:59.100Z,99.99
2016-12-19T11:48:59.083Z,99.99
2016-12-19T11:49:59.071Z,99.99
2016-12-19T11:50:59.053Z,99.99
2016-12-19T11:51:59.040Z,99.99
2016-12-19T11:52:59.032Z,99.99
2016-12-19T11:53:59.009Z,99.99
2016-12-19T11:54:59.307Z,99.99
2016-12-19T11:55:58.980Z,99.99
2016-12-19T11:56:59.278Z,99.99
2016-12-19T11:57:58.947Z,99.99
2016-12-19T11:58:58.942Z,99.99
2016-12-19T11:59:58.919Z,99.99
2016-12-19T12:00:58.906Z,99.99
2016-12-19T12:01:58.893Z,99.99
2016-12-19T12:02:58.876Z,99.99
2016-12-19T12:03:58.862Z,99.99
2016-12-19T12:04:58.844Z,99.99
2016-12-19T12:05:59.139Z,99.99
2016-12-19T12:06:58.814Z,99.99
2016-12-19T12:07:58.798Z,99.99
2016-12-19T12:08:58.784Z,99.99
2016-12-19T12:09:59.079Z,99.99
2016-12-19T12:10:58.754Z,99.99
2016-12-19T12:11:59.076Z,99.99
2016-12-19T12:12:58.730Z,99.99
2016-12-19T12:13:58.718Z,99.99
2016-12-19T12:14:58.699Z,99.99
2016-12-19T12:15:58.685Z,99.99
2016-12-19T12:16:58.670Z,99.99
2016-12-19T12:17:58.654Z,99.99
2016-12-19T12:18:58.638Z,99.99
2016-12-19T12:19:58.629Z,99.99
2016-12-19T12:20:58.617Z,99.99
2016-12-19T12:21:58.602Z,99.99
2016-12-19T12:22:58.595Z,99.99
2016-12-19T12:23:58.579Z,99.99
2016-12-19T12:24:58.774Z,99.99
2016-12-19T12:25:58.559Z,99.99
2016-12-19T12:26:58.547Z,99.99
2016-12-19T12:27:58.538Z,99.99
2016-12-19T12:28:58.525Z,99.99
2016-12-19T12:29:58.518Z,99.99
2016-12-19T12:30:58.508Z,99.99
2016-12-19T12:31:58.499Z,99.99
2016-12-19T12:32:58.492Z,99.99
2016-12-19T12:33:58.482Z,99.99
2016-12-19T12:34:58.789Z,99.99
2016-12-19T12:35:58.469Z,99.99
2016-12-19T12:36:58.773Z,99.99
2016-12-19T12:37:58.484Z,99.99
2016-12-19T12:38:58.441Z,97.13
2016-12-19T12:39:58.434Z,95.75
2016-12-19T12:40:58.741Z,95.46
2016-12-19T12:41:58.428Z,94.41
2016-12-19T12:42:58.410Z,96.37
2016-12-19T12:43:58.407Z,94.26
2016-12-19T12:44:58.402Z,92.45
2016-12-19T12:45:58.395Z,92.21
2016-12-19T12:46:58.394Z,91.44
2016-12-19T12:47:58.382Z,91.53
2016-12-19T12:48:58.376Z,91.35
2016-12-19T12:49:58.371Z,81.44
2016-12-19T12:50:58.363Z,83.45
2016-12-19T12:51:58.356Z,83.79
2016-12-19T12:52:58.351Z,79.39
2016-12-19T12:53:58.347Z,82.22